createdAt,value
2023-01-24T00:01:17.259Z,83.23
2023-01-24T00:03:46.835Z,82.58
2023-01-24T00:06:14.828Z,83.49
2023-01-24T00:08:42.606Z,83.62
2023-01-24T00:11:12.625Z,84.16
2023-01-24T00:13:40.698Z,83.69
2023-01-24T00:16:11.458Z,83.10
2023-01-24T00:18:39.597Z,83.90
2023-01-24T00:21:13.163Z,82.94
2023-01-24T00:23:41.737Z,81.83
2023-01-24T00:26:09.638Z,83.10
2023-01-24T00:28:37.863Z,82.52
2023-01-24T00:31:06.557Z,82.37
2023-01-24T00:33:34.995Z,81.67
2023-01-24T00:36:03.782Z,82.28
2023-01-24T00:38:33.583Z,83.25
2023-01-24T00:41:01.455Z,82.28
2023-01-24T00:43:29.391Z,82.20
2023-01-24T00:45:58.106Z,82.56
2023-01-24T00:48:25.854Z,81.50
2023-01-24T00:50:53.892Z,80.26
2023-01-24T00:53:21.900Z,82.54
2023-01-24T00:55:51.462Z,81.82
2023-01-24T00:58:19.237Z,80.65
2023-01-24T01:00:46.979Z,81.11
2023-01-24T01:03:16.213Z,81.17
2023-01-24T01:05:44.443Z,81.14
2023-01-24T01:08:13.341Z,80.58
2023-01-24T01:10:41.875Z,80.48
2023-01-24T01:13:13.682Z,80.06
2023-01-24T01:15:41.475Z,80.79
2023-01-24T01:18:09.354Z,80.66
2023-01-24T01:20:37.355Z,80.83
2023-01-24T01:23:05.287Z,80.93
2023-01-24T01:25:33.287Z,80.64
2023-01-24T01:28:01.037Z,81.79
2023-01-24T01:30:30.150Z,82.07
2023-01-24T01:32:57.947Z,81.79
2023-01-24T01:35:25.739Z,81.01
2023-01-24T01:37:53.440Z,80.53
2023-01-24T01:40:21.230Z,80.72
2023-01-24T01:42:54.239Z,80.32
2023-01-24T01:45:36.153Z,80.08
2023-01-24T01:48:13.287Z,79.34
2023-01-24T01:50:45.957Z,79.98
2023-01-24T01:53:16.111Z,79.63
2023-01-24T01:55:50.111Z,81.15
2023-01-24T01:58:19.334Z,80.73
2023-01-24T02:00:51.418Z,81.05
2023-01-24T02:03:42.392Z,81.35
2023-01-24T02:06:20.483Z,80.04
2023-01-24T02:08:49.828Z,81.53
2023-01-24T02:11:35.582Z,82.40
2023-01-24T02:14:20.861Z,81.32
2023-01-24T02:16:50.033Z,80.83
2023-01-24T02:19:29.525Z,81.51
2023-01-24T02:22:04.864Z,81.00
2023-01-24T02:24:37.920Z,80.81
2023-01-24T02:27:06.983Z,82.87
2023-01-24T02:29:34.876Z,81.66
2023-01-24T02:32:04.650Z,81.11
2023-01-24T02:34:32.474Z,81.48
2023-01-24T02:37:03.267Z,81.88
2023-01-24T02:39:34.694Z,81.46
2023-01-24T02:42:06.566Z,82.00
2023-01-24T02:44:50.414Z,82.20
2023-01-24T02:47:17.916Z,81.05
2023-01-24T02:49:45.707Z,81.16
2023-01-24T02:52:31.089Z,83.32
2023-01-24T02:54:58.853Z,82.26
2023-01-24T02:57:44.231Z,81.91
2023-01-24T03:00:14.433Z,81.38
2023-01-24T03:02:42.143Z,82.50
2023-01-24T03:05:10.551Z,82.39
2023-01-24T03:07:45.329Z,84.05
2023-01-24T03:10:15.216Z,83.32
2023-01-24T03:13:00.995Z,82.04
2023-01-24T03:15:47.627Z,81.75
2023-01-24T03:18:33.433Z,82.24
2023-01-24T03:21:18.746Z,81.23
2023-01-24T03:24:03.992Z,81.96
2023-01-24T03:26:49.367Z,82.60
2023-01-24T03:29:34.672Z,82.29
2023-01-24T03:32:21.543Z,82.48
2023-01-24T03:34:50.991Z,83.12
2023-01-24T03:37:40.143Z,82.97
2023-01-24T03:40:10.304Z,82.24
2023-01-24T03:42:47.787Z,81.56
2023-01-24T03:45:18.332Z,81.70
2023-01-24T03:48:05.868Z,80.77
2023-01-24T03:50:53.132Z,80.57
2023-01-24T03:53:22.370Z,82.11
2023-01-24T03:55:53.831Z,82.49
2023-01-24T03:58:21.654Z,83.25
2023-01-24T04:00:49.909Z,82.93
2023-01-24T04:03:19.190Z,83.53
2023-01-24T04:05:48.217Z,83.18
2023-01-24T04:08:16.363Z,84.35
2023-01-24T04:10:44.112Z,84.99
2023-01-24T04:13:12.319Z,83.41
2023-01-24T04:15:40.338Z,83.55
2023-01-24T04:18:08.732Z,82.40
2023-01-24T04:20:38.790Z,82.33
2023-01-24T04:23:08.393Z,81.00
2023-01-24T04:25:36.602Z,81.17
2023-01-24T04:28:04.808Z,81.32
2023-01-24T04:30:32.602Z,82.48
2023-01-24T04:33:00.629Z,83.79
2023-01-24T04:35:30.800Z,85.00
2023-01-24T04:38:04.144Z,84.96
2023-01-24T04:40:32.007Z,83.56
2023-01-24T04:42:59.904Z,83.71
2023-01-24T04:45:27.876Z,83.31
2023-01-24T04:47:55.708Z,83.66
2023-01-24T04:50:23.653Z,83.64
2023-01-24T04:52:51.543Z,84.72
2023-01-24T04:55:21.273Z,83.28
2023-01-24T04:57:49.143Z,84.66
2023-01-24T05:00:18.080Z,84.48
2023-01-24T05:02:45.853Z,84.26
2023-01-24T05:05:13.677Z,85.47
2023-01-24T05:07:41.372Z,84.70
2023-01-24T05:10:10.639Z,83.74
2023-01-24T05:12:39.803Z,83.70
2023-01-24T05:15:08.899Z,83.81
2023-01-24T05:17:36.634Z,84.70
2023-01-24T05:20:04.721Z,84.11
2023-01-24T05:22:32.543Z,84.29
2023-01-24T05:25:00.371Z,83.45
2023-01-24T05:27:28.158Z,85.01
2023-01-24T05:29:57.299Z,84.36
2023-01-24T05:32:25.048Z,84.05
2023-01-24T05:34:52.842Z,82.48
2023-01-24T05:37:20.553Z,85.09
2023-01-24T05:39:48.246Z,84.34
2023-01-24T05:42:16.103Z,84.40
2023-01-24T05:44:43.817Z,85.03
2023-01-24T05:47:13.011Z,85.69
2023-01-24T05:49:40.778Z,84.39
2023-01-24T05:52:08.599Z,84.37
2023-01-24T05:54:36.309Z,84.36
2023-01-24T05:57:04.067Z,85.24
2023-01-24T05:59:31.949Z,84.87
2023-01-24T06:01:59.688Z,86.02
2023-01-24T06:04:28.857Z,85.04
2023-01-24T06:06:56.670Z,84.32
2023-01-24T06:09:24.467Z,84.28
2023-01-24T06:11:52.378Z,84.69
2023-01-24T06:14:20.264Z,84.36
2023-01-24T06:16:48.821Z,84.09
2023-01-24T06:19:17.354Z,84.96
2023-01-24T06:21:48.366Z,84.14
2023-01-24T06:24:20.446Z,83.84
2023-01-24T06:26:50.405Z,84.70
2023-01-24T06:29:19.475Z,86.42
2023-01-24T06:32:01.239Z,84.98
2023-01-24T06:34:51.197Z,84.53
2023-01-24T06:37:29.937Z,84.42
2023-01-24T06:39:58.462Z,85.01
2023-01-24T06:42:26.994Z,84.90
2023-01-24T06:44:54.757Z,85.58
2023-01-24T06:47:24.849Z,85.06
2023-01-24T06:49:52.644Z,84.95
2023-01-24T06:52:21.773Z,83.05
2023-01-24T06:54:49.572Z,85.81
2023-01-24T06:57:17.987Z,85.43
2023-01-24T06:59:45.763Z,84.90
2023-01-24T07:02:13.745Z,85.76
2023-01-24T07:04:41.547Z,84.74
2023-01-24T07:07:09.372Z,83.60
2023-01-24T07:09:38.631Z,85.14
2023-01-24T07:12:06.779Z,84.94
2023-01-24T07:14:34.539Z,86.20
2023-01-24T07:17:02.886Z,85.48
2023-01-24T07:19:31.273Z,86.05
2023-01-24T07:21:59.569Z,85.44
2023-01-24T07:24:30.471Z,86.56
2023-01-24T07:27:00.419Z,86.80
2023-01-24T07:29:28.209Z,86.25
2023-01-24T07:31:56.077Z,85.96
2023-01-24T07:34:23.872Z,87.05
2023-01-24T07:36:51.642Z,86.07
2023-01-24T07:39:19.455Z,85.86
2023-01-24T07:41:47.189Z,85.21
2023-01-24T07:44:16.280Z,85.24
2023-01-24T07:46:44.031Z,87.37
2023-01-24T07:49:11.800Z,86.08
2023-01-24T07:51:40.752Z,86.35
2023-01-24T07:54:10.350Z,86.59
2023-01-24T07:56:38.397Z,87.01
2023-01-24T07:59:06.479Z,85.95
2023-01-24T08:01:35.644Z,85.33
2023-01-24T08:04:03.444Z,85.31
2023-01-24T08:06:31.378Z,84.90
2023-01-24T08:08:59.274Z,84.51
2023-01-24T08:11:27.034Z,84.81
2023-01-24T08:13:55.866Z,85.64
2023-01-24T08:16:26.747Z,85.30
2023-01-24T08:18:55.980Z,84.87
2023-01-24T08:21:23.792Z,85.70
2023-01-24T08:23:51.583Z,85.13
2023-01-24T08:26:20.505Z,86.04
2023-01-24T08:28:49.238Z,85.79
2023-01-24T08:31:16.944Z,84.56
2023-01-24T08:33:44.781Z,84.82
2023-01-24T08:36:13.858Z,83.82
2023-01-24T08:38:41.719Z,84.63
2023-01-24T08:41:09.694Z,84.79
2023-01-24T08:43:37.442Z,84.36
2023-01-24T08:46:05.786Z,85.42
2023-01-24T08:48:33.751Z,85.31
2023-01-24T08:51:04.581Z,85.25
2023-01-24T08:53:35.285Z,85.31
2023-01-24T08:56:03.562Z,85.89
2023-01-24T08:58:33.213Z,85.00
2023-01-24T09:01:01.108Z,84.13
2023-01-24T09:03:29.106Z,84.15
2023-01-24T09:05:58.237Z,85.68
2023-01-24T09:08:26.263Z,84.19
2023-01-24T09:10:55.540Z,83.40
2023-01-24T09:13:23.319Z,83.65
2023-01-24T09:15:52.972Z,84.27
2023-01-24T09:18:21.428Z,84.93
2023-01-24T09:20:49.333Z,84.35
2023-01-24T09:23:17.182Z,85.07
2023-01-24T09:25:52.543Z,83.58
2023-01-24T09:28:21.698Z,83.73
2023-01-24T09:30:49.967Z,83.05
2023-01-24T09:33:21.080Z,83.26
2023-01-24T09:35:58.010Z,82.79
2023-01-24T09:38:28.117Z,83.16
2023-01-24T09:41:02.905Z,82.41
2023-01-24T09:43:43.787Z,82.45
2023-01-24T09:46:33.357Z,81.61
2023-01-24T09:49:07.184Z,82.24
2023-01-24T09:51:39.208Z,82.03
2023-01-24T09:54:08.097Z,82.99
2023-01-24T09:56:38.226Z,84.25
2023-01-24T09:59:18.978Z,84.54
2023-01-24T10:01:48.943Z,84.28
2023-01-24T10:04:20.753Z,83.59
2023-01-24T10:07:27.585Z,83.16
2023-01-24T10:10:06.535Z,83.83
2023-01-24T10:12:49.851Z,83.84
2023-01-24T10:15:36.239Z,83.38
2023-01-24T10:18:21.576Z,83.82
2023-01-24T10:21:02.213Z,81.44
2023-01-24T10:23:35.328Z,81.70
2023-01-24T10:26:07.037Z,83.76
2023-01-24T10:28:39.480Z,82.80
2023-01-24T10:31:15.337Z,82.51
2023-01-24T10:33:48.478Z,83.85
2023-01-24T10:36:24.129Z,83.26
2023-01-24T10:38:52.108Z,83.74
2023-01-24T10:41:22.754Z,83.05
2023-01-24T10:43:57.931Z,84.62
2023-01-24T10:46:59.462Z,83.72
2023-01-24T10:49:29.944Z,84.00
2023-01-24T10:52:16.713Z,83.09
2023-01-24T10:54:46.907Z,82.95
2023-01-24T10:57:39.514Z,82.33
2023-01-24T11:00:20.288Z,83.21
2023-01-24T11:02:51.654Z,82.71
2023-01-24T11:05:21.912Z,83.36
2023-01-24T11:07:52.125Z,82.84
2023-01-24T11:10:23.376Z,83.22
2023-01-24T11:12:55.361Z,83.29
2023-01-24T11:15:27.134Z,84.41
2023-01-24T11:17:59.458Z,84.14
2023-01-24T11:20:35.547Z,84.38
2023-01-24T11:23:06.084Z,82.73
2023-01-24T11:25:34.157Z,83.54
2023-01-24T11:28:02.002Z,82.94
2023-01-24T11:30:35.203Z,84.50
2023-01-24T11:33:26.502Z,84.05
2023-01-24T11:35:57.516Z,83.86
2023-01-24T11:38:30.279Z,83.54
2023-01-24T11:41:09.742Z,81.14
2023-01-24T11:44:25.046Z,83.88
2023-01-24T11:47:01.403Z,81.88
2023-01-24T11:49:55.495Z,84.15
2023-01-24T11:52:30.811Z,84.51
2023-01-24T11:55:05.521Z,83.39
2023-01-24T11:57:47.560Z,83.58
2023-01-24T12:00:26.591Z,83.01
2023-01-24T12:03:18.703Z,84.00
2023-01-24T12:05:59.557Z,83.40
2023-01-24T12:08:43.326Z,82.20
2023-01-24T12:11:33.620Z,81.72
2023-01-24T12:14:26.959Z,81.59
2023-01-24T12:17:09.139Z,81.29
2023-01-24T12:19:56.083Z,82.06
2023-01-24T12:22:28.261Z,81.52
2023-01-24T12:25:01.382Z,83.34
2023-01-24T12:27:34.011Z,81.72
2023-01-24T12:30:06.699Z,81.54
2023-01-24T12:32:42.700Z,82.88
2023-01-24T12:35:21.372Z,82.58
2023-01-24T12:38:07.787Z,81.80
2023-01-24T12:40:52.240Z,82.32
2023-01-24T12:43:28.985Z,81.72
2023-01-24T12:46:04.887Z,80.69
2023-01-24T12:48:41.612Z,80.97
2023-01-24T12:51:22.309Z,82.38
2023-01-24T12:54:01.930Z,81.89
2023-01-24T12:56:38.294Z,82.31
2023-01-24T12:59:06.207Z,81.78
2023-01-24T13:01:55.376Z,82.11
2023-01-24T13:04:35.271Z,82.11
2023-01-24T13:07:14.300Z,81.91
2023-01-24T13:09:50.553Z,79.61
2023-01-24T13:12:23.825Z,79.48
2023-01-24T13:14:56.513Z,78.84
2023-01-24T13:17:59.190Z,80.05
2023-01-24T13:20:53.504Z,79.67
2023-01-24T13:23:53.334Z,79.44
2023-01-24T13:26:48.730Z,79.91
2023-01-24T13:29:56.685Z,80.05
2023-01-24T13:32:25.735Z,81.24
2023-01-24T13:34:57.474Z,80.45
2023-01-24T13:37:29.586Z,79.87
2023-01-24T13:40:09.368Z,78.77
2023-01-24T13:42:40.483Z,79.07
2023-01-24T13:45:50.326Z,79.90
2023-01-24T13:48:54.534Z,81.37
2023-01-24T13:51:49.525Z,80.68
2023-01-24T13:54:38.646Z,80.27
2023-01-24T13:57:23.722Z,79.67
2023-01-24T14:00:16.210Z,79.42
2023-01-24T14:02:56.723Z,80.32
2023-01-24T14:05:44.010Z,78.89
2023-01-24T14:08:34.787Z,78.41
2023-01-24T14:11:19.814Z,78.18
2023-01-24T14:14:03.371Z,77.96
2023-01-24T14:17:01.940Z,77.45
2023-01-24T14:19:34.700Z,79.43
2023-01-24T14:22:08.044Z,79.61
2023-01-24T14:24:38.077Z,80.15
2023-01-24T14:27:19.241Z,78.89
2023-01-24T14:29:50.560Z,80.28
2023-01-24T14:32:26.185Z,79.56
2023-01-24T14:35:01.833Z,79.73
2023-01-24T14:37:32.831Z,79.67
2023-01-24T14:40:20.422Z,79.56
2023-01-24T14:42:48.680Z,80.17
2023-01-24T14:45:18.510Z,79.35
2023-01-24T14:47:50.764Z,79.84
2023-01-24T14:50:24.745Z,81.77
2023-01-24T14:52:52.948Z,82.50
2023-01-24T14:55:33.728Z,83.03
2023-01-24T14:58:21.208Z,82.56
2023-01-24T15:00:49.701Z,82.75
2023-01-24T15:03:22.526Z,83.27
2023-01-24T15:06:02.444Z,83.32
2023-01-24T15:08:30.842Z,82.42
2023-01-24T15:11:02.125Z,83.15
2023-01-24T15:13:35.939Z,83.21
2023-01-24T15:16:05.739Z,83.64
2023-01-24T15:18:47.316Z,81.28
2023-01-24T15:21:27.486Z,82.78
2023-01-24T15:23:58.187Z,80.92
2023-01-24T15:26:35.974Z,81.55
2023-01-24T15:29:51.895Z,82.42
2023-01-24T15:32:32.157Z,82.17
2023-01-24T15:35:39.524Z,82.33
2023-01-24T15:38:21.713Z,83.21
2023-01-24T15:40:55.621Z,83.61
2023-01-24T15:43:46.726Z,83.45
2023-01-24T15:46:41.323Z,83.09
2023-01-24T15:49:32.523Z,83.02
2023-01-24T15:52:05.126Z,82.59
2023-01-24T15:54:34.777Z,83.00
2023-01-24T15:57:04.413Z,84.30
2023-01-24T15:59:33.283Z,84.39
2023-01-24T16:02:01.844Z,84.01
2023-01-24T16:04:29.676Z,83.25
2023-01-24T16:06:57.467Z,83.28
2023-01-24T16:09:26.030Z,83.44
2023-01-24T16:11:55.286Z,83.94
2023-01-24T16:14:25.332Z,83.76
2023-01-24T16:16:55.176Z,83.67
2023-01-24T16:19:24.555Z,84.54
2023-01-24T16:21:52.862Z,84.72
2023-01-24T16:24:20.857Z,84.29
2023-01-24T16:26:51.590Z,84.81
2023-01-24T16:29:23.680Z,83.66
2023-01-24T16:31:51.543Z,83.31
2023-01-24T16:34:19.915Z,82.74
2023-01-24T16:36:47.931Z,82.46
2023-01-24T16:39:19.385Z,82.79
2023-01-24T16:41:47.781Z,83.23
2023-01-24T16:44:15.658Z,82.78
2023-01-24T16:46:49.554Z,83.13
2023-01-24T16:49:17.978Z,84.37
2023-01-24T16:51:46.663Z,83.40
2023-01-24T16:54:15.538Z,83.82
2023-01-24T16:56:45.950Z,83.91
2023-01-24T16:59:13.741Z,83.90
2023-01-24T17:01:42.676Z,84.72
2023-01-24T17:04:12.546Z,83.66
2023-01-24T17:06:40.373Z,84.54
2023-01-24T17:09:09.548Z,85.32
2023-01-24T17:11:37.361Z,84.15
2023-01-24T17:14:05.093Z,84.40
2023-01-24T17:16:32.982Z,84.27
2023-01-24T17:19:02.609Z,85.00
2023-01-24T17:21:31.896Z,83.96
2023-01-24T17:23:59.663Z,84.21
2023-01-24T17:26:27.476Z,83.41
2023-01-24T17:28:55.344Z,84.50
2023-01-24T17:31:23.218Z,84.66
2023-01-24T17:33:51.077Z,84.04
2023-01-24T17:36:19.442Z,84.60
2023-01-24T17:38:48.767Z,85.65
2023-01-24T17:41:18.775Z,85.11
2023-01-24T17:43:53.153Z,84.03
2023-01-24T17:46:22.170Z,84.22
2023-01-24T17:48:50.146Z,86.23
2023-01-24T17:51:19.319Z,85.05
2023-01-24T17:53:48.938Z,85.73
2023-01-24T17:56:18.054Z,85.04
2023-01-24T17:58:46.251Z,84.83
2023-01-24T18:01:15.700Z,85.66
2023-01-24T18:03:44.196Z,85.16
2023-01-24T18:06:12.023Z,86.30
2023-01-24T18:08:39.887Z,86.07
2023-01-24T18:11:10.115Z,84.36
2023-01-24T18:13:38.704Z,83.90
2023-01-24T18:16:09.392Z,85.48
2023-01-24T18:18:38.823Z,85.84
2023-01-24T18:21:10.861Z,85.08
2023-01-24T18:23:39.059Z,83.24
2023-01-24T18:26:07.895Z,84.82
2023-01-24T18:28:37.779Z,84.21
2023-01-24T18:31:08.174Z,85.12
2023-01-24T18:33:36.031Z,85.81
2023-01-24T18:36:08.281Z,87.10
2023-01-24T18:38:36.313Z,86.88
2023-01-24T18:41:04.066Z,87.71
2023-01-24T18:43:31.846Z,88.03
2023-01-24T18:46:04.588Z,86.30
2023-01-24T18:48:35.899Z,86.69
2023-01-24T18:51:07.744Z,86.10
2023-01-24T18:53:35.650Z,86.08
2023-01-24T18:56:05.102Z,85.72
2023-01-24T18:58:33.389Z,85.72
2023-01-24T19:01:01.332Z,85.76
2023-01-24T19:03:30.505Z,85.23
2023-01-24T19:05:58.191Z,84.88
2023-01-24T19:08:25.956Z,85.27
2023-01-24T19:10:53.691Z,85.88
2023-01-24T19:13:21.452Z,87.00
2023-01-24T19:15:49.238Z,86.00
2023-01-24T19:18:17.928Z,85.80
2023-01-24T19:20:47.059Z,86.06
2023-01-24T19:23:15.998Z,86.89
2023-01-24T19:25:43.843Z,87.14
2023-01-24T19:28:11.585Z,86.18
2023-01-24T19:30:39.336Z,85.22
2023-01-24T19:33:07.057Z,86.66
2023-01-24T19:35:36.590Z,85.92
2023-01-24T19:38:05.642Z,85.63
2023-01-24T19:40:34.308Z,86.08
2023-01-24T19:43:02.033Z,85.79
2023-01-24T19:45:29.754Z,86.89
2023-01-24T19:47:57.438Z,86.50
2023-01-24T19:50:25.187Z,87.90
2023-01-24T19:52:52.969Z,89.72
2023-01-24T19:55:22.118Z,88.96
2023-01-24T19:57:49.924Z,87.52
2023-01-24T20:00:18.443Z,87.63
2023-01-24T20:02:46.873Z,89.35
2023-01-24T20:05:14.849Z,88.52
2023-01-24T20:07:42.603Z,88.63
2023-01-24T20:10:12.567Z,87.87
2023-01-24T20:12:42.509Z,87.25
2023-01-24T20:15:11.409Z,88.05
2023-01-24T20:17:39.274Z,87.94
2023-01-24T20:20:08.354Z,88.49
2023-01-24T20:22:36.056Z,88.90
2023-01-24T20:25:13.742Z,87.65
2023-01-24T20:27:47.882Z,87.91
2023-01-24T20:30:16.946Z,87.60
2023-01-24T20:32:44.766Z,86.88
2023-01-24T20:35:13.206Z,87.99
2023-01-24T20:37:41.021Z,86.94
2023-01-24T20:40:10.196Z,86.49
2023-01-24T20:42:41.795Z,88.32
2023-01-24T20:45:12.002Z,87.85
2023-01-24T20:47:39.873Z,86.97
2023-01-24T20:50:08.655Z,87.25
2023-01-24T20:52:36.419Z,87.47
2023-01-24T20:55:04.448Z,87.07
2023-01-24T20:57:32.321Z,87.62
2023-01-24T21:00:00.051Z,86.96
2023-01-24T21:02:29.278Z,87.13
2023-01-24T21:04:57.153Z,86.76
2023-01-24T21:07:24.853Z,87.91
2023-01-24T21:09:52.977Z,87.29
2023-01-24T21:12:20.743Z,86.48
2023-01-24T21:14:48.803Z,89.63
2023-01-24T21:17:19.734Z,89.06
2023-01-24T21:19:48.971Z,88.11
2023-01-24T21:22:16.671Z,88.10
2023-01-24T21:24:44.477Z,88.99
2023-01-24T21:27:12.281Z,89.01
2023-01-24T21:29:40.408Z,87.85
2023-01-24T21:32:08.371Z,87.98
2023-01-24T21:34:36.360Z,87.55
2023-01-24T21:37:05.531Z,87.97
2023-01-24T21:39:33.423Z,88.68
2023-01-24T21:42:02.781Z,89.15
2023-01-24T21:44:32.721Z,88.11
2023-01-24T21:47:00.983Z,88.20
2023-01-24T21:49:29.008Z,88.44
2023-01-24T21:51:59.711Z,89.59
2023-01-24T21:54:31.587Z,87.65
2023-01-24T21:57:30.235Z,87.97
2023-01-24T21:59:59.495Z,89.36
2023-01-24T22:02:29.112Z,88.59
2023-01-24T22:04:57.198Z,87.60
2023-01-24T22:07:26.890Z,88.86
2023-01-24T22:09:57.823Z,88.66
2023-01-24T22:12:25.911Z,88.11
2023-01-24T22:14:54.282Z,88.63
2023-01-24T22:17:24.801Z,89.51
2023-01-24T22:19:55.234Z,89.61
2023-01-24T22:22:49.026Z,89.05
2023-01-24T22:25:29.413Z,88.51
2023-01-24T22:27:57.711Z,88.95
2023-01-24T22:30:27.500Z,89.45
2023-01-24T22:32:56.826Z,89.49
2023-01-24T22:35:26.830Z,88.41
2023-01-24T22:37:56.862Z,89.10
2023-01-24T22:40:27.812Z,89.42
2023-01-24T22:42:57.842Z,89.50
2023-01-24T22:45:26.418Z,88.98
2023-01-24T22:47:54.166Z,88.36
2023-01-24T22:50:22.242Z,88.73
2023-01-24T22:52:50.361Z,89.21
2023-01-24T22:55:18.945Z,87.95
2023-01-24T22:57:48.144Z,88.40
2023-01-24T23:00:17.212Z,88.89
2023-01-24T23:02:44.966Z,88.12
2023-01-24T23:05:12.995Z,89.19
2023-01-24T23:07:41.014Z,87.83
2023-01-24T23:10:09.870Z,87.36
2023-01-24T23:12:55.636Z,87.82
2023-01-24T23:15:42.269Z,88.12
2023-01-24T23:18:15.340Z,87.47
2023-01-24T23:21:00.456Z,88.09
2023-01-24T23:23:28.209Z,87.72
2023-01-24T23:25:56.034Z,88.84
2023-01-24T23:28:29.273Z,87.64
2023-01-24T23:31:05.800Z,87.86
2023-01-24T23:33:36.795Z,87.95
2023-01-24T23:36:04.732Z,87.18
2023-01-24T23:38:32.577Z,88.17
2023-01-24T23:41:00.353Z,87.95
2023-01-24T23:43:28.333Z,88.90
2023-01-24T23:45:56.228Z,88.78
2023-01-24T23:48:25.405Z,87.71
2023-01-24T23:50:57.066Z,88.33
2023-01-24T23:53:25.185Z,88.58
2023-01-24T23:55:53.196Z,88.74
2023-01-24T23:58:20.950Z,88.30
